sensor_id;sensor_type;location;lat;lon;timestamp;pressure;altitude;pressure_sealevel;temperature;humidity
54856;BME280;40748;53.168;5.800;2023-01-28T00:01:36;103087.73000000001;;;3.38;89.51
54856;BME280;40748;53.168;5.800;2023-01-28T00:04:05;103087.73000000001;;;3.40;89.51
54856;BME280;40748;53.168;5.800;2023-01-28T00:06:35;103093.68;;;3.39;89.48
54856;BME280;40748;53.168;5.800;2023-01-28T00:09:05;103088.55;;;3.40;89.50
54856;BME280;40748;53.168;5.800;2023-01-28T00:14:05;103086.85;;;3.39;89.54
54856;BME280;40748;53.168;5.800;2023-01-28T00:16:35;103084.41;;;3.40;89.49
54856;BME280;40748;53.168;5.800;2023-01-28T00:19:05;103082.67000000001;;;3.39;89.49
54856;BME280;40748;53.168;5.800;2023-01-28T00:21:35;103083.62999999999;;;3.40;89.54
54856;BME280;40748;53.168;5.800;2023-01-28T00:24:07;103088.68;;;3.39;89.47
54856;BME280;40748;53.168;5.800;2023-01-28T00:29:05;103079.90999999999;;;3.38;89.40
54856;BME280;40748;53.168;5.800;2023-01-28T00:36:35;103067.99;;;3.39;89.42
54856;BME280;40748;53.168;5.800;2023-01-28T00:39:05;103069.68999999999;;;3.38;89.42
54856;BME280;40748;53.168;5.800;2023-01-28T00:41:35;103064.72000000002;;;3.39;89.49
54856;BME280;40748;53.168;5.800;2023-01-28T00:46:36;103055.31000000001;;;3.40;89.55
54856;BME280;40748;53.168;5.800;2023-01-28T00:49:05;103055.31000000001;;;3.39;89.55
54856;BME280;40748;53.168;5.800;2023-01-28T00:51:35;103054.18999999999;;;3.35;89.59
54856;BME280;40748;53.168;5.800;2023-01-28T00:54:05;103056.88;;;3.32;89.68
54856;BME280;40748;53.168;5.800;2023-01-28T00:56:35;103060.56000000001;;;3.34;89.70
54856;BME280;40748;53.168;5.800;2023-01-28T00:59:05;103060.23;;;3.33;89.62
54856;BME280;40748;53.168;5.800;2023-01-28T01:01:35;103052.55;;;3.32;89.60
54856;BME280;40748;53.168;5.800;2023-01-28T01:04:05;103045.01000000001;;;3.34;89.46
54856;BME280;40748;53.168;5.800;2023-01-28T01:11:35;103055.97;;;3.35;89.43
54856;BME280;40748;53.168;5.800;2023-01-28T01:14:05;103058.98;;;3.36;89.46
54856;BME280;40748;53.168;5.800;2023-01-28T01:21:35;103057.39000000001;;;3.37;89.54
54856;BME280;40748;53.168;5.800;2023-01-28T01:24:06;103058.73;;;3.38;89.55
54856;BME280;40748;53.168;5.800;2023-01-28T01:29:05;103062.01000000001;;;3.39;89.56
54856;BME280;40748;53.168;5.800;2023-01-28T01:31:35;103064.38;;;3.40;89.61
54856;BME280;40748;53.168;5.800;2023-01-28T01:34:05;103072.02;;;3.39;89.57
54856;BME280;40748;53.168;5.800;2023-01-28T01:36:35;103064.29000000001;;;3.40;89.57
54856;BME280;40748;53.168;5.800;2023-01-28T01:41:35;103059.56000000001;;;3.41;89.66
54856;BME280;40748;53.168;5.800;2023-01-28T01:54:05;103070.1;;;3.42;89.61
54856;BME280;40748;53.168;5.800;2023-01-28T01:56:37;103071.98000000001;;;3.41;89.60
54856;BME280;40748;53.168;5.800;2023-01-28T01:59:07;103067.03;;;3.40;89.60
54856;BME280;40748;53.168;5.800;2023-01-28T02:06:35;103063.29000000001;;;3.39;89.53
54856;BME280;40748;53.168;5.800;2023-01-28T02:09:06;103062.76000000001;;;3.37;89.47
54856;BME280;40748;53.168;5.800;2023-01-28T02:11:35;103057.17;;;3.36;89.65
54856;BME280;40748;53.168;5.800;2023-01-28T02:19:05;103066.93000000001;;;3.33;89.43
54856;BME280;40748;53.168;5.800;2023-01-28T02:21:48;103066.14;;;3.34;89.50
54856;BME280;40748;53.168;5.800;2023-01-28T02:26:41;103065.36000000002;;;3.35;89.41
54856;BME280;40748;53.168;5.800;2023-01-28T02:29:07;103062.06;;;3.34;89.40
54856;BME280;40748;53.168;5.800;2023-01-28T02:34:07;103058.90999999999;;;3.35;89.37
54856;BME280;40748;53.168;5.800;2023-01-28T02:36:37;103058.98;;;3.33;89.32
54856;BME280;40748;53.168;5.800;2023-01-28T02:46:36;103061.55000000002;;;3.34;89.33
54856;BME280;40748;53.168;5.800;2023-01-28T02:59:07;103049.99;;;3.33;89.37
54856;BME280;40748;53.168;5.800;2023-01-28T03:01:37;103044.89000000001;;;3.34;89.38
54856;BME280;40748;53.168;5.800;2023-01-28T03:04:06;103050.04;;;3.33;89.34
54856;BME280;40748;53.168;5.800;2023-01-28T03:09:06;103047.85999999999;;;3.32;89.33
54856;BME280;40748;53.168;5.800;2023-01-28T03:14:06;103063.95999999999;;;3.33;89.34
54856;BME280;40748;53.168;5.800;2023-01-28T03:26:37;103071.02;;;3.32;89.34
54856;BME280;40748;53.168;5.800;2023-01-28T03:31:35;103065.93000000001;;;3.33;89.38
54856;BME280;40748;53.168;5.800;2023-01-28T03:34:05;103065.84;;;3.32;89.34
54856;BME280;40748;53.168;5.800;2023-01-28T03:39:06;103070.97000000002;;;3.31;89.33
54856;BME280;40748;53.168;5.800;2023-01-28T03:41:35;103073.12999999999;;;3.32;89.34
54856;BME280;40748;53.168;5.800;2023-01-28T03:44:05;103072.11;;;3.30;89.30
54856;BME280;40748;53.168;5.800;2023-01-28T03:46:35;103065.66;;;3.28;89.21
54856;BME280;40748;53.168;5.800;2023-01-28T03:49:05;103065.66;;;3.29;89.25
54856;BME280;40748;53.168;5.800;2023-01-28T03:51:36;103073.39;;;3.28;89.32
54856;BME280;40748;53.168;5.800;2023-01-28T03:54:05;103073.43000000001;;;3.27;89.24
54856;BME280;40748;53.168;5.800;2023-01-28T03:56:35;103069.3;;;3.25;89.15
54856;BME280;40748;53.168;5.800;2023-01-28T04:01:35;103061.5;;;3.24;89.23
54856;BME280;40748;53.168;5.800;2023-01-28T04:06:35;103062.71999999999;;;3.25;89.25
54856;BME280;40748;53.168;5.800;2023-01-28T04:09:05;103064.43999999999;;;3.24;89.27
54856;BME280;40748;53.168;5.800;2023-01-28T04:11:35;103061.43;;;3.23;89.30
54856;BME280;40748;53.168;5.800;2023-01-28T04:14:05;103055.69;;;3.20;89.21
54856;BME280;40748;53.168;5.800;2023-01-28T04:19:06;103053.63;;;3.18;89.32
54856;BME280;40748;53.168;5.800;2023-01-28T04:24:06;103064.95;;;3.19;89.37
54856;BME280;40748;53.168;5.800;2023-01-28T04:26:35;103067.79;;;3.17;89.33
54856;BME280;40748;53.168;5.800;2023-01-28T04:29:06;103064.31;;;3.18;89.38
54856;BME280;40748;53.168;5.800;2023-01-28T04:31:35;103064.31;;;3.17;89.33
54856;BME280;40748;53.168;5.800;2023-01-28T04:34:05;103065.07999999999;;;3.15;89.27
54856;BME280;40748;53.168;5.800;2023-01-28T04:36:35;103058.18999999999;;;3.10;89.30
54856;BME280;40748;53.168;5.800;2023-01-28T04:39:05;103054.65;;;3.02;89.36
54856;BME280;40748;53.168;5.800;2023-01-28T04:41:35;103052.06000000001;;;3.07;89.70
54856;BME280;40748;53.168;5.800;2023-01-28T04:51:35;103051.81;;;3.06;89.22
54856;BME280;40748;53.168;5.800;2023-01-28T04:54:06;103048.95;;;3.05;89.08
54856;BME280;40748;53.168;5.800;2023-01-28T04:56:35;103048.95;;;3.02;89.08
54856;BME280;40748;53.168;5.800;2023-01-28T04:59:05;103048.16;;;2.98;89.06
54856;BME280;40748;53.168;5.800;2023-01-28T05:01:35;103047.06000000001;;;2.95;89.10
54856;BME280;40748;53.168;5.800;2023-01-28T05:04:05;103046.47;;;2.92;89.11
54856;BME280;40748;53.168;5.800;2023-01-28T05:06:35;103050.01;;;2.89;89.08
54856;BME280;40748;53.168;5.800;2023-01-28T05:09:05;103055.52;;;2.88;89.05
54856;BME280;40748;53.168;5.800;2023-01-28T05:11:35;103057.23000000001;;;2.85;89.01
54856;BME280;40748;53.168;5.800;2023-01-28T05:14:05;103056.86;;;2.84;89.04
54856;BME280;40748;53.168;5.800;2023-01-28T05:16:36;103059.38;;;2.83;89.09
54856;BME280;40748;53.168;5.800;2023-01-28T05:19:05;103059.38;;;2.78;89.09
54856;BME280;40748;53.168;5.800;2023-01-28T05:21:35;103053.31000000001;;;2.79;89.22
54856;BME280;40748;53.168;5.800;2023-01-28T05:24:06;103054.45999999999;;;2.75;89.24
54856;BME280;40748;53.168;5.800;2023-01-28T05:26:35;103048.73999999999;;;2.71;89.20
54856;BME280;40748;53.168;5.800;2023-01-28T05:29:06;103046.92;;;2.68;89.38
54856;BME280;40748;53.168;5.800;2023-01-28T05:31:35;103043.46;;;2.72;89.39
54856;BME280;40748;53.168;5.800;2023-01-28T05:36:35;103045.59;;;2.75;89.12
54856;BME280;40748;53.168;5.800;2023-01-28T05:41:36;103047.27;;;2.76;89.15
54856;BME280;40748;53.168;5.800;2023-01-28T05:46:35;103055.93;;;2.74;89.06
54856;BME280;40748;53.168;5.800;2023-01-28T05:49:05;103052.06000000001;;;2.70;89.10
54856;BME280;40748;53.168;5.800;2023-01-28T05:51:35;103048.25;;;2.68;89.23
54856;BME280;40748;53.168;5.800;2023-01-28T05:54:06;103042.32999999999;;;2.70;89.49
54856;BME280;40748;53.168;5.800;2023-01-28T05:59:05;103043.59;;;2.66;89.43
54856;BME280;40748;53.168;5.800;2023-01-28T06:06:35;103049.65999999999;;;2.67;89.65
54856;BME280;40748;53.168;5.800;2023-01-28T06:09:05;103043.59;;;2.66;89.63
54856;BME280;40748;53.168;5.800;2023-01-28T06:14:05;103047.91;;;2.68;89.72
54856;BME280;40748;53.168;5.800;2023-01-28T06:16:35;103045.89000000001;;;2.67;89.59
54856;BME280;40748;53.168;5.800;2023-01-28T06:19:05;103044.37000000001;;;2.65;89.69
54856;BME280;40748;53.168;5.800;2023-01-28T06:24:05;103054.63;;;2.66;89.75
54856;BME280;40748;53.168;5.800;2023-01-28T06:26:35;103054.37;;;2.65;89.73
54856;BME280;40748;53.168;5.800;2023-01-28T06:36:35;103056.21;;;2.63;89.67
54856;BME280;40748;53.168;5.800;2023-01-28T06:39:05;103059.90999999999;;;2.61;89.65
54856;BME280;40748;53.168;5.800;2023-01-28T06:41:35;103060.22;;;2.60;89.54
54856;BME280;40748;53.168;5.800;2023-01-28T06:44:05;103062.06;;;2.57;89.34
54856;BME280;40748;53.168;5.800;2023-01-28T06:46:35;103057.13;;;2.52;89.15
54856;BME280;40748;53.168;5.800;2023-01-28T06:49:05;103058.7;;;2.44;89.06
54856;BME280;40748;53.168;5.800;2023-01-28T06:51:35;103066.15999999999;;;2.38;89.01
54856;BME280;40748;53.168;5.800;2023-01-28T06:54:06;103074.37999999999;;;2.33;88.95
54856;BME280;40748;53.168;5.800;2023-01-28T06:56:35;103073.01;;;2.30;88.87
54856;BME280;40748;53.168;5.800;2023-01-28T06:59:05;103072.17000000001;;;2.26;88.73
54856;BME280;40748;53.168;5.800;2023-01-28T07:01:35;103077.93;;;2.21;88.59
54856;BME280;40748;53.168;5.800;2023-01-28T07:04:05;103078.97;;;2.15;88.51
54856;BME280;40748;53.168;5.800;2023-01-28T07:06:35;103071.61000000002;;;2.09;88.46
54856;BME280;40748;53.168;5.800;2023-01-28T07:09:05;103063.70999999999;;;2.02;88.41
54856;BME280;40748;53.168;5.800;2023-01-28T07:11:35;103067.82;;;1.97;88.40
54856;BME280;40748;53.168;5.800;2023-01-28T07:14:06;103074.79000000001;;;1.92;88.38
54856;BME280;40748;53.168;5.800;2023-01-28T07:16:35;103076.56;;;1.88;88.34
54856;BME280;40748;53.168;5.800;2023-01-28T07:19:05;103076.62;;;1.83;88.30
54856;BME280;40748;53.168;5.800;2023-01-28T07:21:35;103072.0;;;1.76;88.29
54856;BME280;40748;53.168;5.800;2023-01-28T07:24:06;103070.65;;;1.70;88.26
54856;BME280;40748;53.168;5.800;2023-01-28T07:26:36;103072.68999999999;;;1.66;88.28
54856;BME280;40748;53.168;5.800;2023-01-28T07:29:05;103071.64;;;1.60;88.30
54856;BME280;40748;53.168;5.800;2023-01-28T07:31:35;103071.28;;;1.54;88.34
54856;BME280;40748;53.168;5.800;2023-01-28T07:34:05;103068.84999999999;;;1.51;88.38
54856;BME280;40748;53.168;5.800;2023-01-28T07:36:35;103083.42;;;1.49;88.43
54856;BME280;40748;53.168;5.800;2023-01-28T07:39:06;103082.86;;;1.45;88.35
54856;BME280;40748;53.168;5.800;2023-01-28T07:41:35;103078.58000000002;;;1.40;88.33
54856;BME280;40748;53.168;5.800;2023-01-28T07:44:05;103085.95;;;1.37;88.45
54856;BME280;40748;53.168;5.800;2023-01-28T07:46:35;103088.06999999999;;;1.36;88.58
54856;BME280;40748;53.168;5.800;2023-01-28T07:51:35;103119.76;;;1.35;88.67
54856;BME280;40748;53.168;5.800;2023-01-28T07:54:05;103110.17;;;1.30;88.73
54856;BME280;40748;53.168;5.800;2023-01-28T07:56:35;103108.24;;;1.32;88.93
54856;BME280;40748;53.168;5.800;2023-01-28T08:01:35;103114.97;;;1.31;88.82
54856;BME280;40748;53.168;5.800;2023-01-28T08:04:06;103125.44;;;1.30;88.84
54856;BME280;40748;53.168;5.800;2023-01-28T08:06:35;103124.56999999999;;;1.28;88.82
54856;BME280;40748;53.168;5.800;2023-01-28T08:09:05;103126.43000000001;;;1.24;88.90
54856;BME280;40748;53.168;5.800;2023-01-28T08:11:36;103130.62999999999;;;1.27;89.08
54856;BME280;40748;53.168;5.800;2023-01-28T08:14:05;103128.09;;;1.26;89.12
54856;BME280;40748;53.168;5.800;2023-01-28T08:16:36;103131.42;;;1.28;89.28
54856;BME280;40748;53.168;5.800;2023-01-28T08:19:05;103135.07999999999;;;1.31;89.40
54856;BME280;40748;53.168;5.800;2023-01-28T08:21:35;103142.0;;;1.34;89.46
54856;BME280;40748;53.168;5.800;2023-01-28T08:24:06;103144.31999999999;;;1.37;89.58
54856;BME280;40748;53.168;5.800;2023-01-28T08:29:05;103142.93000000001;;;1.39;89.78
54856;BME280;40748;53.168;5.800;2023-01-28T08:31:35;103149.48999999999;;;1.43;89.86
54856;BME280;40748;53.168;5.800;2023-01-28T08:34:05;103148.43000000001;;;1.44;89.80
54856;BME280;40748;53.168;5.800;2023-01-28T08:39:05;103157.18;;;1.43;89.66
54856;BME280;40748;53.168;5.800;2023-01-28T08:41:36;103152.36;;;1.42;89.73
54856;BME280;40748;53.168;5.800;2023-01-28T08:44:05;103150.65999999999;;;1.40;89.67
54856;BME280;40748;53.168;5.800;2023-01-28T08:46:35;103150.78000000001;;;1.41;89.76
54856;BME280;40748;53.168;5.800;2023-01-28T08:51:35;103159.42;;;1.43;89.72
54856;BME280;40748;53.168;5.800;2023-01-28T08:54:06;103152.62;;;1.44;89.60
54856;BME280;40748;53.168;5.800;2023-01-28T08:56:35;103159.83000000002;;;1.42;89.65
54856;BME280;40748;53.168;5.800;2023-01-28T08:59:05;103155.81999999999;;;1.43;89.74
54856;BME280;40748;53.168;5.800;2023-01-28T09:01:35;103157.97;;;1.41;89.72
54856;BME280;40748;53.168;5.800;2023-01-28T09:04:05;103155.87000000001;;;1.43;89.78
54856;BME280;40748;53.168;5.800;2023-01-28T09:06:35;103155.58000000002;;;1.42;89.75
54856;BME280;40748;53.168;5.800;2023-01-28T09:09:05;103159.83000000002;;;1.43;89.78
54856;BME280;40748;53.168;5.800;2023-01-28T09:11:35;103164.93000000001;;;1.42;89.85
54856;BME280;40748;53.168;5.800;2023-01-28T09:14:05;103163.56000000001;;;1.44;89.87
54856;BME280;40748;53.168;5.800;2023-01-28T09:16:35;103161.21;;;1.48;89.96
54856;BME280;40748;53.168;5.800;2023-01-28T09:19:06;103164.84;;;1.56;90.27
54856;BME280;40748;53.168;5.800;2023-01-28T09:21:37;103162.21;;;1.66;90.61
54856;BME280;40748;53.168;5.800;2023-01-28T09:24:09;103169.04;;;1.77;90.88
54856;BME280;40748;53.168;5.800;2023-01-28T09:26:35;103166.78;;;1.84;91.22
54856;BME280;40748;53.168;5.800;2023-01-28T09:29:05;103161.29000000001;;;1.98;91.80
54856;BME280;40748;53.168;5.800;2023-01-28T09:31:36;103155.52;;;2.06;92.35
54856;BME280;40748;53.168;5.800;2023-01-28T09:34:05;103157.32;;;2.28;93.08
54856;BME280;40748;53.168;5.800;2023-01-28T09:36:35;103157.39000000001;;;2.37;92.83
54856;BME280;40748;53.168;5.800;2023-01-28T09:39:05;103160.9;;;2.50;93.01
54856;BME280;40748;53.168;5.800;2023-01-28T09:41:37;103162.95;;;2.64;92.91
54856;BME280;40748;53.168;5.800;2023-01-28T09:44:10;103158.20000000001;;;2.67;92.77
54856;BME280;40748;53.168;5.800;2023-01-28T09:46:36;103148.89;;;2.73;93.08
54856;BME280;40748;53.168;5.800;2023-01-28T09:49:11;103152.47;;;2.86;93.17
54856;BME280;40748;53.168;5.800;2023-01-28T09:51:38;103154.26;;;2.96;92.94
54856;BME280;40748;53.168;5.800;2023-01-28T09:54:09;103160.51;;;3.04;92.83
54856;BME280;40748;53.168;5.800;2023-01-28T09:56:38;103163.18000000001;;;3.14;92.94
54856;BME280;40748;53.168;5.800;2023-01-28T09:59:12;103168.90000000001;;;3.23;92.88
54856;BME280;40748;53.168;5.800;2023-01-28T10:01:38;103164.94;;;3.27;92.88
54856;BME280;40748;53.168;5.800;2023-01-28T10:04:09;103157.67000000001;;;3.36;93.01
54856;BME280;40748;53.168;5.800;2023-01-28T10:06:40;103150.29;;;3.43;93.07
54856;BME280;40748;53.168;5.800;2023-01-28T10:09:11;103135.89;;;3.45;93.26
54856;BME280;40748;53.168;5.800;2023-01-28T10:11:41;103118.90000000001;;;3.57;93.51
54856;BME280;40748;53.168;5.800;2023-01-28T10:14:07;103118.90000000001;;;3.70;93.51
54856;BME280;40748;53.168;5.800;2023-01-28T10:16:36;103115.38;;;3.73;93.61
54856;BME280;40748;53.168;5.800;2023-01-28T10:19:06;103102.27;;;3.89;93.88
54856;BME280;40748;53.168;5.800;2023-01-28T10:21:38;103093.74;;;4.00;94.59
54856;BME280;40748;53.168;5.800;2023-01-28T10:24:08;103095.65;;;4.10;94.35
54856;BME280;40748;53.168;5.800;2023-01-28T10:26:36;103084.69;;;4.27;94.55
54856;BME280;40748;53.168;5.800;2023-01-28T10:29:10;103079.43000000001;;;4.33;94.81
54856;BME280;40748;53.168;5.800;2023-01-28T10:31:36;103078.04000000001;;;4.47;95.05
54856;BME280;40748;53.168;5.800;2023-01-28T10:34:06;103074.1;;;4.48;94.91
54856;BME280;40748;53.168;5.800;2023-01-28T10:36:35;103069.1;;;4.64;94.39
54856;BME280;40748;53.168;5.800;2023-01-28T10:39:05;103065.84;;;4.79;94.74
54856;BME280;40748;53.168;5.800;2023-01-28T10:41:35;103073.54000000001;;;4.88;94.73
54856;BME280;40748;53.168;5.800;2023-01-28T10:44:07;103067.80000000002;;;4.98;94.92
54856;BME280;40748;53.168;5.800;2023-01-28T10:46:36;103057.55999999998;;;5.08;95.02
54856;BME280;40748;53.168;5.800;2023-01-28T10:49:09;103057.55999999998;;;5.12;94.94
54856;BME280;40748;53.168;5.800;2023-01-28T10:51:36;103061.83000000002;;;5.19;94.79
54856;BME280;40748;53.168;5.800;2023-01-28T10:56:35;103056.88;;;5.21;94.45
54856;BME280;40748;53.168;5.800;2023-01-28T10:59:15;103064.94;;;5.22;94.05
54856;BME280;40748;53.168;5.800;2023-01-28T11:01:39;103073.17;;;5.27;93.86
54856;BME280;40748;53.168;5.800;2023-01-28T11:04:12;103073.51000000001;;;5.28;93.56
54856;BME280;40748;53.168;5.800;2023-01-28T11:06:35;103089.1;;;5.31;93.41
54856;BME280;40748;53.168;5.800;2023-01-28T11:11:35;103089.59999999999;;;5.28;93.36
54856;BME280;40748;53.168;5.800;2023-01-28T11:16:37;103104.26999999999;;;5.19;92.95
54856;BME280;40748;53.168;5.800;2023-01-28T11:19:05;103104.06;;;5.33;93.99
54856;BME280;40748;53.168;5.800;2023-01-28T11:21:36;103093.09000000001;;;5.42;93.65
54856;BME280;40748;53.168;5.800;2023-01-28T11:24:11;103081.36;;;5.48;93.46
54856;BME280;40748;53.168;5.800;2023-01-28T11:29:05;103078.34;;;5.47;93.54
54856;BME280;40748;53.168;5.800;2023-01-28T11:31:36;103078.01999999999;;;5.49;93.93
54856;BME280;40748;53.168;5.800;2023-01-28T11:34:06;103071.47;;;5.63;93.81
54856;BME280;40748;53.168;5.800;2023-01-28T11:36:35;103066.41;;;5.68;93.54
54856;BME280;40748;53.168;5.800;2023-01-28T11:39:16;103065.42;;;5.70;93.33
54856;BME280;40748;53.168;5.800;2023-01-28T11:41:36;103057.15;;;5.73;93.20
54856;BME280;40748;53.168;5.800;2023-01-28T11:44:09;103049.6;;;5.76;93.18
54856;BME280;40748;53.168;5.800;2023-01-28T11:46:40;103041.98;;;5.84;93.41
54856;BME280;40748;53.168;5.800;2023-01-28T11:49:07;103040.5;;;5.93;93.46
54856;BME280;40748;53.168;5.800;2023-01-28T11:51:37;103035.40000000001;;;6.14;93.71
54856;BME280;40748;53.168;5.800;2023-01-28T11:54:09;103045.5;;;6.33;94.67
54856;BME280;40748;53.168;5.800;2023-01-28T11:56:40;103046.70000000001;;;6.55;95.44
54856;BME280;40748;53.168;5.800;2023-01-28T11:59:09;103045.07;;;6.69;95.44
54856;BME280;40748;53.168;5.800;2023-01-28T12:01:38;103043.02;;;6.72;95.05
54856;BME280;40748;53.168;5.800;2023-01-28T12:06:40;103037.26;;;6.69;94.35
54856;BME280;40748;53.168;5.800;2023-01-28T12:09:08;103030.85;;;6.71;93.77
54856;BME280;40748;53.168;5.800;2023-01-28T12:11:37;103029.97;;;6.69;93.32
54856;BME280;40748;53.168;5.800;2023-01-28T12:14:06;103030.07;;;6.68;93.18
54856;BME280;40748;53.168;5.800;2023-01-28T12:16:39;103027.56;;;6.67;92.86
54856;BME280;40748;53.168;5.800;2023-01-28T12:19:08;103024.26000000001;;;6.57;92.67
54856;BME280;40748;53.168;5.800;2023-01-28T12:21:39;103025.06000000001;;;6.56;92.50
54856;BME280;40748;53.168;5.800;2023-01-28T12:24:10;103015.73000000001;;;6.62;92.33
54856;BME280;40748;53.168;5.800;2023-01-28T12:26:38;103012.70999999999;;;6.87;93.19
54856;BME280;40748;53.168;5.800;2023-01-28T12:29:11;103010.79;;;7.33;95.04
54856;BME280;40748;53.168;5.800;2023-01-28T12:35:51;103022.95;;;8.47;98.61
54856;BME280;40748;53.168;5.800;2023-01-28T12:36:39;103022.95;;;9.04;98.61
54856;BME280;40748;53.168;5.800;2023-01-28T12:39:08;103022.6;;;9.33;98.56
54856;BME280;40748;53.168;5.800;2023-01-28T12:41:36;103019.59;;;9.58;99.19
54856;BME280;40748;53.168;5.800;2023-01-28T12:44:08;103023.56;;;9.56;96.64
54856;BME280;40748;53.168;5.800;2023-01-28T12:46:38;103029.08;;;9.58;95.83
54856;BME280;40748;53.168;5.800;2023-01-28T12:49:06;103029.15000000001;;;9.47;94.51
54856;BME280;40748;53.168;5.800;2023-01-28T12:51:39;103026.42000000001;;;9.25;93.44
54856;BME280;40748;53.168;5.800;2023-01-28T12:54:09;103023.95;;;9.14;92.67
54856;BME280;40748;53.168;5.800;2023-01-28T12:56:36;103025.12;;;8.83;92.05
54856;BME280;40748;53.168;5.800;2023-01-28T12:59:09;103025.63;;;8.70;91.79
54856;BME280;40748;53.168;5.800;2023-01-28T13:14:06;103009.7;;;7.82;90.06
54856;BME280;40748;53.168;5.800;2023-01-28T13:16:35;103011.41;;;7.74;90.26
54856;BME280;40748;53.168;5.800;2023-01-28T13:21:35;103023.18000000001;;;7.71;89.65
54856;BME280;40748;53.168;5.800;2023-01-28T13:24:18;103015.64000000001;;;7.69;89.55
54856;BME280;40748;53.168;5.800;2023-01-28T13:26:40;103009.53;;;7.34;89.16
54856;BME280;40748;53.168;5.800;2023-01-28T13:29:07;102998.47;;;7.42;89.22
54856;BME280;40748;53.168;5.800;2023-01-28T13:34:06;102990.52999999998;;;7.33;89.43
54856;BME280;40748;53.168;5.800;2023-01-28T13:36:36;102983.35999999999;;;7.34;89.45
54856;BME280;40748;53.168;5.800;2023-01-28T13:39:07;102980.40000000001;;;7.36;89.35
54856;BME280;40748;53.168;5.800;2023-01-28T13:41:36;102981.09999999999;;;7.38;89.25
54856;BME280;40748;53.168;5.800;2023-01-28T13:46:35;102986.07999999999;;;7.23;89.20
54856;BME280;40748;53.168;5.800;2023-01-28T13:49:09;102977.31000000001;;;7.18;89.53
54856;BME280;40748;53.168;5.800;2023-01-28T13:51:36;102972.57999999999;;;7.20;89.25
54856;BME280;40748;53.168;5.800;2023-01-28T13:54:06;102975.20999999999;;;7.27;89.15
54856;BME280;40748;53.168;5.800;2023-01-28T13:56:38;102969.3;;;7.17;88.97
54856;BME280;40748;53.168;5.800;2023-01-28T14:01:43;102975.37999999999;;;7.20;89.11
54856;BME280;40748;53.168;5.800;2023-01-28T14:06:41;102991.31999999999;;;7.06;88.72
54856;BME280;40748;53.168;5.800;2023-01-28T14:09:10;102999.15000000001;;;6.99;89.03
54856;BME280;40748;53.168;5.800;2023-01-28T14:16:37;102997.12;;;7.02;88.42
54856;BME280;40748;53.168;5.800;2023-01-28T14:19:07;102991.66;;;6.94;88.43
54856;BME280;40748;53.168;5.800;2023-01-28T14:21:36;103006.13;;;6.89;88.57
54856;BME280;40748;53.168;5.800;2023-01-28T14:24:09;103005.32;;;6.85;88.58
54856;BME280;40748;53.168;5.800;2023-01-28T14:26:39;103019.36;;;6.69;88.57
54856;BME280;40748;53.168;5.800;2023-01-28T14:29:09;103023.56;;;6.66;89.20
54856;BME280;40748;53.168;5.800;2023-01-28T14:31:36;103026.99;;;6.68;89.05
54856;BME280;40748;53.168;5.800;2023-01-28T14:34:08;103023.54000000001;;;6.72;89.01
54856;BME280;40748;53.168;5.800;2023-01-28T14:36:36;103012.40000000001;;;6.73;88.67
54856;BME280;40748;53.168;5.800;2023-01-28T14:39:10;102996.98000000001;;;6.72;88.57
54856;BME280;40748;53.168;5.800;2023-01-28T14:41:36;102993.29000000001;;;6.63;88.64
54856;BME280;40748;53.168;5.800;2023-01-28T14:44:06;103003.76000000001;;;6.65;88.75
54856;BME280;40748;53.168;5.800;2023-01-28T14:46:37;103003.76000000001;;;6.66;88.84
54856;BME280;40748;53.168;5.800;2023-01-28T14:49:11;103007.8;;;6.69;88.77
54856;BME280;40748;53.168;5.800;2023-01-28T14:51:39;103015.56;;;6.68;88.59
54856;BME280;40748;53.168;5.800;2023-01-28T14:54:12;103018.12999999999;;;6.67;88.54
54856;BME280;40748;53.168;5.800;2023-01-28T14:56:40;103020.31;;;6.66;88.50
54856;BME280;40748;53.168;5.800;2023-01-28T14:59:06;103008.76000000001;;;6.65;88.57
54856;BME280;40748;53.168;5.800;2023-01-28T15:01:41;103007.57;;;6.57;88.52
54856;BME280;40748;53.168;5.800;2023-01-28T15:16:36;103032.28;;;6.57;88.80
54856;BME280;40748;53.168;5.800;2023-01-28T15:21:36;103029.42;;;6.58;88.94
54856;BME280;40748;53.168;5.800;2023-01-28T15:24:08;103024.28;;;6.57;88.93
54856;BME280;40748;53.168;5.800;2023-01-28T15:26:36;103017.91;;;6.56;88.97
54856;BME280;40748;53.168;5.800;2023-01-28T15:31:36;103014.69;;;6.52;89.07
54856;BME280;40748;53.168;5.800;2023-01-28T15:34:10;103010.33;;;6.54;89.15
54856;BME280;40748;53.168;5.800;2023-01-28T15:36:36;103009.23;;;6.52;89.06
54856;BME280;40748;53.168;5.800;2023-01-28T15:39:11;103010.66;;;6.48;89.05
54856;BME280;40748;53.168;5.800;2023-01-28T15:46:38;103001.35;;;6.46;89.22
54856;BME280;40748;53.168;5.800;2023-01-28T15:49:06;103001.78000000001;;;6.45;89.25
54856;BME280;40748;53.168;5.800;2023-01-28T15:51:36;102994.53000000001;;;6.43;89.26
54856;BME280;40748;53.168;5.800;2023-01-28T15:54:06;102998.47;;;6.39;89.18
54856;BME280;40748;53.168;5.800;2023-01-28T15:56:36;102993.03;;;6.37;89.17
54856;BME280;40748;53.168;5.800;2023-01-28T15:59:09;102985.6;;;6.33;89.16
54856;BME280;40748;53.168;5.800;2023-01-28T16:01:36;102982.41;;;6.27;89.13
54856;BME280;40748;53.168;5.800;2023-01-28T16:04:18;102980.54;;;6.24;89.12
54856;BME280;40748;53.168;5.800;2023-01-28T16:06:36;102981.48000000001;;;6.19;89.02
54856;BME280;40748;53.168;5.800;2023-01-28T16:09:06;102985.45;;;6.10;88.91
54856;BME280;40748;53.168;5.800;2023-01-28T16:11:36;102982.8;;;6.05;88.86